sensor_id;sensor_type;location;lat;lon;timestamp;P1;durP1;ratioP1;P2;durP2;ratioP2
56319;SDS011;42226;42.382;23.748;2022-08-03T00:00:26;1.63;;;1.52;;
56319;SDS011;42226;42.382;23.748;2022-08-03T00:02:52;2.38;;;1.52;;
56319;SDS011;42226;42.382;23.748;2022-08-03T00:05:19;2.30;;;1.73;;
56319;SDS011;42226;42.382;23.748;2022-08-03T00:07:46;1.65;;;1.45;;
56319;SDS011;42226;42.382;23.748;2022-08-03T00:10:13;1.77;;;1.67;;
56319;SDS011;42226;42.382;23.748;2022-08-03T00:12:39;1.98;;;1.65;;
56319;SDS011;42226;42.382;23.748;2022-08-03T00:15:06;3.13;;;1.90;;
56319;SDS011;42226;42.382;23.748;2022-08-03T00:17:34;1.75;;;1.60;;
56319;SDS011;42226;42.382;23.748;2022-08-03T00:20:00;2.42;;;1.70;;
56319;SDS011;42226;42.382;23.748;2022-08-03T00:22:27;2.30;;;1.60;;
56319;SDS011;42226;42.382;23.748;2022-08-03T00:24:54;2.45;;;1.60;;
56319;SDS011;42226;42.382;23.748;2022-08-03T00:27:21;1.80;;;1.70;;
56319;SDS011;42226;42.382;23.748;2022-08-03T00:29:48;1.70;;;1.60;;
56319;SDS011;42226;42.382;23.748;2022-08-03T00:32:14;1.92;;;1.73;;
56319;SDS011;42226;42.382;23.748;2022-08-03T00:34:41;2.33;;;1.75;;
56319;SDS011;42226;42.382;23.748;2022-08-03T00:37:08;2.10;;;1.90;;
56319;SDS011;42226;42.382;23.748;2022-08-03T00:39:35;2.22;;;1.77;;
56319;SDS011;42226;42.382;23.748;2022-08-03T00:42:02;1.80;;;1.70;;
56319;SDS011;42226;42.382;23.748;2022-08-03T00:44:29;2.65;;;1.52;;
56319;SDS011;42226;42.382;23.748;2022-08-03T00:47:03;1.90;;;1.80;;
56319;SDS011;42226;42.382;23.748;2022-08-03T00:49:30;2.00;;;1.80;;
56319;SDS011;42226;42.382;23.748;2022-08-03T00:51:57;2.33;;;1.40;;
56319;SDS011;42226;42.382;23.748;2022-08-03T00:54:25;1.70;;;1.60;;
56319;SDS011;42226;42.382;23.748;2022-08-03T00:56:52;2.58;;;1.70;;
56319;SDS011;42226;42.382;23.748;2022-08-03T00:59:19;1.58;;;1.48;;
56319;SDS011;42226;42.382;23.748;2022-08-03T01:01:46;1.80;;;1.50;;
56319;SDS011;42226;42.382;23.748;2022-08-03T01:04:13;1.83;;;1.60;;
56319;SDS011;42226;42.382;23.748;2022-08-03T01:12:41;1.90;;;1.70;;
56319;SDS011;42226;42.382;23.748;2022-08-03T01:15:24;2.63;;;1.67;;
56319;SDS011;42226;42.382;23.748;2022-08-03T01:18:24;1.60;;;1.50;;
56319;SDS011;42226;42.382;23.748;2022-08-03T01:21:11;2.35;;;1.60;;
56319;SDS011;42226;42.382;23.748;2022-08-03T01:26:52;2.10;;;1.80;;
56319;SDS011;42226;42.382;23.748;2022-08-03T01:32:36;1.80;;;1.70;;
56319;SDS011;42226;42.382;23.748;2022-08-03T01:35:21;1.73;;;1.63;;
56319;SDS011;42226;42.382;23.748;2022-08-03T01:37:57;2.20;;;1.70;;
56319;SDS011;42226;42.382;23.748;2022-08-03T01:40:30;1.90;;;1.70;;
56319;SDS011;42226;42.382;23.748;2022-08-03T01:43:01;1.73;;;1.63;;
56319;SDS011;42226;42.382;23.748;2022-08-03T01:45:29;4.05;;;1.90;;
56319;SDS011;42226;42.382;23.748;2022-08-03T01:47:57;2.50;;;1.80;;
56319;SDS011;42226;42.382;23.748;2022-08-03T01:50:26;1.85;;;1.75;;
56319;SDS011;42226;42.382;23.748;2022-08-03T01:52:55;1.75;;;1.50;;
56319;SDS011;42226;42.382;23.748;2022-08-03T01:55:23;1.70;;;1.60;;
56319;SDS011;42226;42.382;23.748;2022-08-03T01:57:56;5.10;;;1.70;;
56319;SDS011;42226;42.382;23.748;2022-08-03T02:00:27;2.10;;;1.75;;
56319;SDS011;42226;42.382;23.748;2022-08-03T02:02:54;5.60;;;2.38;;
56319;SDS011;42226;42.382;23.748;2022-08-03T02:05:22;3.10;;;1.60;;
56319;SDS011;42226;42.382;23.748;2022-08-03T02:07:51;1.50;;;1.40;;
56319;SDS011;42226;42.382;23.748;2022-08-03T02:10:18;2.05;;;1.60;;
56319;SDS011;42226;42.382;23.748;2022-08-03T02:12:46;2.22;;;1.60;;
56319;SDS011;42226;42.382;23.748;2022-08-03T02:15:15;1.67;;;1.58;;
56319;SDS011;42226;42.382;23.748;2022-08-03T02:17:44;1.50;;;1.40;;
56319;SDS011;42226;42.382;23.748;2022-08-03T02:20:12;2.17;;;1.70;;
56319;SDS011;42226;42.382;23.748;2022-08-03T02:22:40;2.08;;;1.60;;
56319;SDS011;42226;42.382;23.748;2022-08-03T02:25:13;2.10;;;1.90;;
56319;SDS011;42226;42.382;23.748;2022-08-03T02:28:05;1.60;;;1.50;;
56319;SDS011;42226;42.382;23.748;2022-08-03T02:30:39;1.52;;;1.42;;
56319;SDS011;42226;42.382;23.748;2022-08-03T02:33:10;1.80;;;1.70;;
56319;SDS011;42226;42.382;23.748;2022-08-03T02:35:42;3.50;;;1.70;;
56319;SDS011;42226;42.382;23.748;2022-08-03T02:38:11;1.80;;;1.70;;
56319;SDS011;42226;42.382;23.748;2022-08-03T02:40:40;1.90;;;1.80;;
56319;SDS011;42226;42.382;23.748;2022-08-03T02:43:09;2.00;;;1.77;;
56319;SDS011;42226;42.382;23.748;2022-08-03T02:45:43;4.25;;;1.90;;
56319;SDS011;42226;42.382;23.748;2022-08-03T02:48:17;3.00;;;1.77;;
56319;SDS011;42226;42.382;23.748;2022-08-03T02:50:51;2.80;;;2.00;;
56319;SDS011;42226;42.382;23.748;2022-08-03T02:53:21;3.03;;;1.75;;
56319;SDS011;42226;42.382;23.748;2022-08-03T02:55:49;4.95;;;1.98;;
56319;SDS011;42226;42.382;23.748;2022-08-03T02:58:17;2.10;;;1.80;;
56319;SDS011;42226;42.382;23.748;2022-08-03T03:00:45;2.03;;;1.88;;
56319;SDS011;42226;42.382;23.748;2022-08-03T03:03:13;1.70;;;1.60;;
56319;SDS011;42226;42.382;23.748;2022-08-03T03:05:40;2.75;;;1.80;;
56319;SDS011;42226;42.382;23.748;2022-08-03T03:08:07;2.38;;;1.67;;
56319;SDS011;42226;42.382;23.748;2022-08-03T03:10:40;2.25;;;1.70;;
56319;SDS011;42226;42.382;23.748;2022-08-03T03:13:07;2.00;;;1.80;;
56319;SDS011;42226;42.382;23.748;2022-08-03T03:15:35;2.17;;;1.98;;
56319;SDS011;42226;42.382;23.748;2022-08-03T03:18:04;3.03;;;1.52;;
56319;SDS011;42226;42.382;23.748;2022-08-03T03:20:34;2.95;;;1.85;;
56319;SDS011;42226;42.382;23.748;2022-08-03T03:23:03;1.90;;;1.70;;
56319;SDS011;42226;42.382;23.748;2022-08-03T03:25:31;2.47;;;1.60;;
56319;SDS011;42226;42.382;23.748;2022-08-03T03:27:59;2.33;;;1.70;;
56319;SDS011;42226;42.382;23.748;2022-08-03T03:30:27;1.85;;;1.70;;
56319;SDS011;42226;42.382;23.748;2022-08-03T03:32:54;2.20;;;1.60;;
56319;SDS011;42226;42.382;23.748;2022-08-03T03:35:23;2.08;;;1.70;;
56319;SDS011;42226;42.382;23.748;2022-08-03T03:37:51;1.80;;;1.70;;
56319;SDS011;42226;42.382;23.748;2022-08-03T03:40:18;2.10;;;1.50;;
56319;SDS011;42226;42.382;23.748;2022-08-03T03:42:46;1.50;;;1.40;;
56319;SDS011;42226;42.382;23.748;2022-08-03T03:45:13;1.50;;;1.40;;
56319;SDS011;42226;42.382;23.748;2022-08-03T03:47:41;1.70;;;1.60;;
56319;SDS011;42226;42.382;23.748;2022-08-03T03:50:08;1.83;;;1.73;;
56319;SDS011;42226;42.382;23.748;2022-08-03T03:52:35;3.03;;;1.80;;
56319;SDS011;42226;42.382;23.748;2022-08-03T03:55:02;3.72;;;1.90;;
56319;SDS011;42226;42.382;23.748;2022-08-03T03:57:29;2.97;;;1.63;;
56319;SDS011;42226;42.382;23.748;2022-08-03T03:59:56;2.20;;;2.00;;
56319;SDS011;42226;42.382;23.748;2022-08-03T04:02:23;2.58;;;1.70;;
56319;SDS011;42226;42.382;23.748;2022-08-03T04:04:49;2.05;;;1.88;;
56319;SDS011;42226;42.382;23.748;2022-08-03T04:07:55;3.80;;;2.20;;
56319;SDS011;42226;42.382;23.748;2022-08-03T04:11:08;1.85;;;1.73;;
56319;SDS011;42226;42.382;23.748;2022-08-03T04:16:41;1.63;;;1.52;;
56319;SDS011;42226;42.382;23.748;2022-08-03T04:19:16;1.75;;;1.55;;
56319;SDS011;42226;42.382;23.748;2022-08-03T04:21:59;1.70;;;1.60;;
56319;SDS011;42226;42.382;23.748;2022-08-03T04:24:32;1.85;;;1.60;;
56319;SDS011;42226;42.382;23.748;2022-08-03T04:27:04;2.33;;;1.60;;
56319;SDS011;42226;42.382;23.748;2022-08-03T04:29:33;2.20;;;1.65;;
56319;SDS011;42226;42.382;23.748;2022-08-03T04:32:04;2.58;;;1.67;;
56319;SDS011;42226;42.382;23.748;2022-08-03T04:34:32;2.50;;;1.60;;
56319;SDS011;42226;42.382;23.748;2022-08-03T04:37:00;1.77;;;1.67;;
56319;SDS011;42226;42.382;23.748;2022-08-03T04:39:33;1.80;;;1.70;;
56319;SDS011;42226;42.382;23.748;2022-08-03T04:42:02;2.65;;;1.67;;
56319;SDS011;42226;42.382;23.748;2022-08-03T04:44:34;1.70;;;1.60;;
56319;SDS011;42226;42.382;23.748;2022-08-03T04:47:05;1.65;;;1.55;;
56319;SDS011;42226;42.382;23.748;2022-08-03T04:49:32;1.70;;;1.60;;
56319;SDS011;42226;42.382;23.748;2022-08-03T04:52:02;2.40;;;1.70;;
56319;SDS011;42226;42.382;23.748;2022-08-03T04:54:37;1.92;;;1.50;;
56319;SDS011;42226;42.382;23.748;2022-08-03T04:57:09;1.70;;;1.50;;
56319;SDS011;42226;42.382;23.748;2022-08-03T04:59:36;1.63;;;1.40;;
56319;SDS011;42226;42.382;23.748;2022-08-03T05:02:03;1.85;;;1.75;;
56319;SDS011;42226;42.382;23.748;2022-08-03T05:04:31;2.97;;;1.67;;
56319;SDS011;42226;42.382;23.748;2022-08-03T05:06:57;1.60;;;1.50;;
56319;SDS011;42226;42.382;23.748;2022-08-03T05:09:24;2.13;;;1.65;;
56319;SDS011;42226;42.382;23.748;2022-08-03T05:11:51;1.83;;;1.65;;
56319;SDS011;42226;42.382;23.748;2022-08-03T05:14:18;4.97;;;1.83;;
56319;SDS011;42226;42.382;23.748;2022-08-03T05:16:44;1.60;;;1.50;;
56319;SDS011;42226;42.382;23.748;2022-08-03T05:19:11;1.67;;;1.58;;
56319;SDS011;42226;42.382;23.748;2022-08-03T05:21:38;2.47;;;1.75;;
56319;SDS011;42226;42.382;23.748;2022-08-03T05:24:05;1.63;;;1.52;;
56319;SDS011;42226;42.382;23.748;2022-08-03T05:26:31;3.22;;;1.60;;
56319;SDS011;42226;42.382;23.748;2022-08-03T05:28:58;2.60;;;1.55;;
56319;SDS011;42226;42.382;23.748;2022-08-03T05:31:25;1.75;;;1.38;;
56319;SDS011;42226;42.382;23.748;2022-08-03T05:33:52;2.08;;;1.20;;
56319;SDS011;42226;42.382;23.748;2022-08-03T05:36:21;1.40;;;1.30;;
56319;SDS011;42226;42.382;23.748;2022-08-03T05:38:48;1.50;;;1.40;;
56319;SDS011;42226;42.382;23.748;2022-08-03T05:41:14;1.50;;;1.40;;
56319;SDS011;42226;42.382;23.748;2022-08-03T05:43:41;1.40;;;1.30;;
56319;SDS011;42226;42.382;23.748;2022-08-03T05:46:09;1.60;;;1.50;;
56319;SDS011;42226;42.382;23.748;2022-08-03T05:48:36;1.70;;;1.40;;
56319;SDS011;42226;42.382;23.748;2022-08-03T05:51:03;2.33;;;1.45;;
56319;SDS011;42226;42.382;23.748;2022-08-03T05:53:32;1.20;;;1.10;;
56319;SDS011;42226;42.382;23.748;2022-08-03T05:55:59;2.25;;;1.52;;
56319;SDS011;42226;42.382;23.748;2022-08-03T05:58:26;1.40;;;1.30;;
56319;SDS011;42226;42.382;23.748;2022-08-03T06:00:53;1.50;;;1.40;;
56319;SDS011;42226;42.382;23.748;2022-08-03T06:03:20;1.40;;;1.30;;
56319;SDS011;42226;42.382;23.748;2022-08-03T06:05:46;1.55;;;1.45;;
56319;SDS011;42226;42.382;23.748;2022-08-03T06:08:13;1.95;;;1.50;;
56319;SDS011;42226;42.382;23.748;2022-08-03T06:10:40;1.50;;;1.40;;
56319;SDS011;42226;42.382;23.748;2022-08-03T06:13:07;1.50;;;1.40;;
56319;SDS011;42226;42.382;23.748;2022-08-03T06:15:33;1.58;;;1.30;;
56319;SDS011;42226;42.382;23.748;2022-08-03T06:18:00;2.67;;;1.40;;
56319;SDS011;42226;42.382;23.748;2022-08-03T06:20:27;2.15;;;1.50;;
56319;SDS011;42226;42.382;23.748;2022-08-03T06:22:54;1.35;;;1.25;;
56319;SDS011;42226;42.382;23.748;2022-08-03T06:25:21;1.75;;;1.50;;
56319;SDS011;42226;42.382;23.748;2022-08-03T06:27:50;1.55;;;1.45;;
56319;SDS011;42226;42.382;23.748;2022-08-03T06:30:16;1.63;;;1.45;;
56319;SDS011;42226;42.382;23.748;2022-08-03T06:32:43;1.55;;;1.45;;
56319;SDS011;42226;42.382;23.748;2022-08-03T06:35:10;1.48;;;1.38;;
56319;SDS011;42226;42.382;23.748;2022-08-03T06:37:41;1.42;;;1.33;;
56319;SDS011;42226;42.382;23.748;2022-08-03T06:40:10;1.65;;;1.50;;
56319;SDS011;42226;42.382;23.748;2022-08-03T06:42:40;1.80;;;1.30;;
56319;SDS011;42226;42.382;23.748;2022-08-03T06:45:08;1.50;;;1.40;;
56319;SDS011;42226;42.382;23.748;2022-08-03T06:47:36;1.60;;;1.50;;
56319;SDS011;42226;42.382;23.748;2022-08-03T06:50:04;2.85;;;1.40;;
56319;SDS011;42226;42.382;23.748;2022-08-03T06:52:35;1.70;;;1.60;;
56319;SDS011;42226;42.382;23.748;2022-08-03T06:55:03;1.60;;;1.50;;
56319;SDS011;42226;42.382;23.748;2022-08-03T06:57:31;1.50;;;1.40;;
56319;SDS011;42226;42.382;23.748;2022-08-03T06:59:57;2.25;;;1.50;;
56319;SDS011;42226;42.382;23.748;2022-08-03T07:02:26;2.10;;;1.67;;
56319;SDS011;42226;42.382;23.748;2022-08-03T07:04:54;1.90;;;1.50;;
56319;SDS011;42226;42.382;23.748;2022-08-03T07:07:21;1.55;;;1.45;;
56319;SDS011;42226;42.382;23.748;2022-08-03T07:09:49;1.80;;;1.70;;
56319;SDS011;42226;42.382;23.748;2022-08-03T07:12:17;2.05;;;1.83;;
56319;SDS011;42226;42.382;23.748;2022-08-03T07:14:43;1.60;;;1.50;;
56319;SDS011;42226;42.382;23.748;2022-08-03T07:17:10;1.75;;;1.65;;
56319;SDS011;42226;42.382;23.748;2022-08-03T07:19:36;1.77;;;1.60;;
56319;SDS011;42226;42.382;23.748;2022-08-03T07:22:04;2.55;;;1.67;;
56319;SDS011;42226;42.382;23.748;2022-08-03T07:24:31;1.60;;;1.50;;
56319;SDS011;42226;42.382;23.748;2022-08-03T07:26:59;3.75;;;1.88;;
56319;SDS011;42226;42.382;23.748;2022-08-03T07:29:28;2.03;;;1.70;;
56319;SDS011;42226;42.382;23.748;2022-08-03T07:32:00;1.60;;;1.50;;
56319;SDS011;42226;42.382;23.748;2022-08-03T07:34:29;2.05;;;1.75;;
56319;SDS011;42226;42.382;23.748;2022-08-03T07:40:38;2.22;;;1.70;;
56319;SDS011;42226;42.382;23.748;2022-08-03T07:43:05;2.08;;;1.70;;
56319;SDS011;42226;42.382;23.748;2022-08-03T07:45:31;2.97;;;1.90;;
56319;SDS011;42226;42.382;23.748;2022-08-03T07:48:14;2.05;;;1.85;;
56319;SDS011;42226;42.382;23.748;2022-08-03T17:32:44;4.68;;;4.00;;
56319;SDS011;42226;42.382;23.748;2022-08-03T17:35:13;4.30;;;3.95;;
56319;SDS011;42226;42.382;23.748;2022-08-03T17:37:40;4.00;;;3.70;;
56319;SDS011;42226;42.382;23.748;2022-08-03T17:40:09;4.10;;;3.80;;
56319;SDS011;42226;42.382;23.748;2022-08-03T17:42:36;3.90;;;3.50;;
56319;SDS011;42226;42.382;23.748;2022-08-03T17:45:04;4.28;;;3.88;;
56319;SDS011;42226;42.382;23.748;2022-08-03T17:47:31;5.20;;;3.92;;
56319;SDS011;42226;42.382;23.748;2022-08-03T17:49:58;4.30;;;4.00;;
56319;SDS011;42226;42.382;23.748;2022-08-03T17:57:47;5.25;;;4.75;;
56319;SDS011;42226;42.382;23.748;2022-08-03T18:00:17;5.60;;;5.20;;
56319;SDS011;42226;42.382;23.748;2022-08-03T18:03:14;5.30;;;4.80;;
56319;SDS011;42226;42.382;23.748;2022-08-03T18:05:55;5.88;;;5.47;;
56319;SDS011;42226;42.382;23.748;2022-08-03T18:08:26;6.13;;;5.60;;
56319;SDS011;42226;42.382;23.748;2022-08-03T18:11:04;6.30;;;5.72;;
56319;SDS011;42226;42.382;23.748;2022-08-03T18:16:30;7.35;;;6.53;;
56319;SDS011;42226;42.382;23.748;2022-08-03T18:19:02;6.38;;;5.78;;
56319;SDS011;42226;42.382;23.748;2022-08-03T18:21:30;6.20;;;5.60;;
56319;SDS011;42226;42.382;23.748;2022-08-03T18:23:57;6.72;;;6.22;;
56319;SDS011;42226;42.382;23.748;2022-08-03T18:26:24;5.90;;;5.50;;
56319;SDS011;42226;42.382;23.748;2022-08-03T18:28:52;6.68;;;6.00;;
56319;SDS011;42226;42.382;23.748;2022-08-03T18:31:19;5.75;;;5.35;;
56319;SDS011;42226;42.382;23.748;2022-08-03T18:33:47;5.72;;;5.32;;
56319;SDS011;42226;42.382;23.748;2022-08-03T18:36:16;6.00;;;5.47;;
56319;SDS011;42226;42.382;23.748;2022-08-03T18:38:47;5.47;;;5.07;;
56319;SDS011;42226;42.382;23.748;2022-08-03T18:41:17;6.40;;;5.80;;
56319;SDS011;42226;42.382;23.748;2022-08-03T18:43:44;6.30;;;5.50;;
56319;SDS011;42226;42.382;23.748;2022-08-03T18:52:16;5.70;;;5.20;;
56319;SDS011;42226;42.382;23.748;2022-08-03T18:55:11;5.45;;;5.05;;
56319;SDS011;42226;42.382;23.748;2022-08-03T18:57:47;5.55;;;5.15;;
56319;SDS011;42226;42.382;23.748;2022-08-03T19:00:57;5.25;;;4.85;;
56319;SDS011;42226;42.382;23.748;2022-08-03T19:03:41;5.05;;;4.65;;
56319;SDS011;42226;42.382;23.748;2022-08-03T19:06:17;5.30;;;4.90;;
56319;SDS011;42226;42.382;23.748;2022-08-03T19:11:39;4.30;;;3.90;;
56319;SDS011;42226;42.382;23.748;2022-08-03T19:14:20;4.45;;;4.05;;
56319;SDS011;42226;42.382;23.748;2022-08-03T19:16:51;4.28;;;3.95;;
56319;SDS011;42226;42.382;23.748;2022-08-03T19:19:28;4.10;;;3.80;;
56319;SDS011;42226;42.382;23.748;2022-08-03T19:21:54;4.07;;;3.78;;
56319;SDS011;42226;42.382;23.748;2022-08-03T19:24:22;4.20;;;3.80;;
56319;SDS011;42226;42.382;23.748;2022-08-03T19:26:50;5.10;;;3.70;;
56319;SDS011;42226;42.382;23.748;2022-08-03T19:29:21;4.30;;;3.83;;
56319;SDS011;42226;42.382;23.748;2022-08-03T19:31:49;3.80;;;3.50;;
56319;SDS011;42226;42.382;23.748;2022-08-03T19:34:16;3.67;;;3.38;;
56319;SDS011;42226;42.382;23.748;2022-08-03T19:36:44;3.72;;;3.40;;
56319;SDS011;42226;42.382;23.748;2022-08-03T19:39:11;4.10;;;3.17;;
56319;SDS011;42226;42.382;23.748;2022-08-03T19:41:38;3.53;;;3.33;;
56319;SDS011;42226;42.382;23.748;2022-08-03T19:44:08;3.50;;;3.20;;
56319;SDS011;42226;42.382;23.748;2022-08-03T19:46:51;3.63;;;3.33;;
56319;SDS011;42226;42.382;23.748;2022-08-03T19:49:25;3.55;;;3.25;;
56319;SDS011;42226;42.382;23.748;2022-08-03T19:51:56;3.53;;;3.22;;
56319;SDS011;42226;42.382;23.748;2022-08-03T19:54:23;3.45;;;3.20;;
56319;SDS011;42226;42.382;23.748;2022-08-03T19:56:52;3.55;;;3.22;;
56319;SDS011;42226;42.382;23.748;2022-08-03T19:59:19;3.17;;;2.88;;
56319;SDS011;42226;42.382;23.748;2022-08-03T20:01:47;3.40;;;3.10;;
56319;SDS011;42226;42.382;23.748;2022-08-03T20:04:14;3.38;;;3.08;;
56319;SDS011;42226;42.382;23.748;2022-08-03T20:06:41;3.60;;;3.30;;
56319;SDS011;42226;42.382;23.748;2022-08-03T20:09:08;4.68;;;3.28;;
56319;SDS011;42226;42.382;23.748;2022-08-03T20:11:35;3.83;;;3.50;;
56319;SDS011;42226;42.382;23.748;2022-08-03T20:14:03;4.95;;;3.17;;
56319;SDS011;42226;42.382;23.748;2022-08-03T20:16:30;3.50;;;3.28;;
56319;SDS011;42226;42.382;23.748;2022-08-03T20:18:56;3.60;;;3.30;;
56319;SDS011;42226;42.382;23.748;2022-08-03T20:21:23;4.15;;;3.00;;
56319;SDS011;42226;42.382;23.748;2022-08-03T20:23:55;3.90;;;3.50;;
56319;SDS011;42226;42.382;23.748;2022-08-03T20:26:28;3.78;;;3.47;;
56319;SDS011;42226;42.382;23.748;2022-08-03T20:28:56;3.55;;;3.25;;
56319;SDS011;42226;42.382;23.748;2022-08-03T20:31:28;4.53;;;3.60;;
56319;SDS011;42226;42.382;23.748;2022-08-03T20:33:57;3.92;;;3.63;;
56319;SDS011;42226;42.382;23.748;2022-08-03T20:36:24;4.68;;;3.40;;
56319;SDS011;42226;42.382;23.748;2022-08-03T20:38:50;4.57;;;3.50;;
56319;SDS011;42226;42.382;23.748;2022-08-03T20:41:18;4.15;;;3.20;;
56319;SDS011;42226;42.382;23.748;2022-08-03T20:43:45;3.60;;;3.30;;
56319;SDS011;42226;42.382;23.748;2022-08-03T20:46:15;3.97;;;3.67;;
56319;SDS011;42226;42.382;23.748;2022-08-03T20:48:43;4.47;;;4.07;;
56319;SDS011;42226;42.382;23.748;2022-08-03T20:51:12;4.80;;;4.35;;
56319;SDS011;42226;42.382;23.748;2022-08-03T20:53:38;5.00;;;4.50;;
56319;SDS011;42226;42.382;23.748;2022-08-03T20:56:09;4.00;;;3.70;;
56319;SDS011;42226;42.382;23.748;2022-08-03T20:58:36;4.15;;;3.63;;
56319;SDS011;42226;42.382;23.748;2022-08-03T21:01:03;3.95;;;3.65;;
56319;SDS011;42226;42.382;23.748;2022-08-03T21:03:30;3.97;;;3.67;;
56319;SDS011;42226;42.382;23.748;2022-08-03T21:05:57;3.78;;;3.47;;
56319;SDS011;42226;42.382;23.748;2022-08-03T21:08:30;4.28;;;3.97;;
56319;SDS011;42226;42.382;23.748;2022-08-03T21:11:00;4.43;;;4.03;;
56319;SDS011;42226;42.382;23.748;2022-08-03T21:13:30;4.22;;;3.92;;
56319;SDS011;42226;42.382;23.748;2022-08-03T21:16:22;4.38;;;4.05;;
56319;SDS011;42226;42.382;23.748;2022-08-03T21:18:57;3.97;;;3.67;;
56319;SDS011;42226;42.382;23.748;2022-08-03T21:21:27;3.65;;;3.35;;
56319;SDS011;42226;42.382;23.748;2022-08-03T21:23:57;3.83;;;3.53;;
56319;SDS011;42226;42.382;23.748;2022-08-03T21:26:25;4.05;;;3.65;;
56319;SDS011;42226;42.382;23.748;2022-08-03T21:28:53;3.67;;;3.35;;
56319;SDS011;42226;42.382;23.748;2022-08-03T21:31:22;3.33;;;3.13;;
56319;SDS011;42226;42.382;23.748;2022-08-03T21:33:49;4.35;;;3.40;;
56319;SDS011;42226;42.382;23.748;2022-08-03T21:36:16;3.88;;;3.63;;
56319;SDS011;42226;42.382;23.748;2022-08-03T21:38:43;4.30;;;4.00;;
56319;SDS011;42226;42.382;23.748;2022-08-03T21:41:10;3.90;;;3.60;;
56319;SDS011;42226;42.382;23.748;2022-08-03T21:43:36;4.15;;;3.85;;
56319;SDS011;42226;42.382;23.748;2022-08-03T21:46:04;4.10;;;3.80;;
56319;SDS011;42226;42.382;23.748;2022-08-03T21:48:35;4.35;;;3.95;;
56319;SDS011;42226;42.382;23.748;2022-08-03T21:51:08;5.88;;;4.43;;
56319;SDS011;42226;42.382;23.748;2022-08-03T21:53:36;4.40;;;4.10;;
56319;SDS011;42226;42.382;23.748;2022-08-03T21:56:08;5.53;;;5.10;;
56319;SDS011;42226;42.382;23.748;2022-08-03T21:58:39;5.88;;;5.38;;
56319;SDS011;42226;42.382;23.748;2022-08-03T22:01:13;5.80;;;5.40;;
56319;SDS011;42226;42.382;23.748;2022-08-03T22:03:40;6.35;;;5.78;;
56319;SDS011;42226;42.382;23.748;2022-08-03T22:06:08;5.97;;;5.53;;
56319;SDS011;42226;42.382;23.748;2022-08-03T22:08:36;5.97;;;5.47;;
56319;SDS011;42226;42.382;23.748;2022-08-03T22:11:02;6.18;;;5.68;;
56319;SDS011;42226;42.382;23.748;2022-08-03T22:13:29;6.38;;;5.88;;
56319;SDS011;42226;42.382;23.748;2022-08-03T22:15:56;5.68;;;5.18;;
56319;SDS011;42226;42.382;23.748;2022-08-03T22:18:23;6.68;;;6.18;;
56319;SDS011;42226;42.382;23.748;2022-08-03T22:20:49;6.68;;;6.07;;
56319;SDS011;42226;42.382;23.748;2022-08-03T22:23:17;7.07;;;6.40;;
56319;SDS011;42226;42.382;23.748;2022-08-03T22:25:46;7.53;;;6.82;;
56319;SDS011;42226;42.382;23.748;2022-08-03T22:28:13;6.30;;;5.80;;
56319;SDS011;42226;42.382;23.748;2022-08-03T22:30:40;6.90;;;6.30;;
56319;SDS011;42226;42.382;23.748;2022-08-03T22:33:09;7.10;;;6.40;;
56319;SDS011;42226;42.382;23.748;2022-08-03T22:35:40;6.05;;;5.53;;
56319;SDS011;42226;42.382;23.748;2022-08-03T22:38:09;6.60;;;6.00;;
56319;SDS011;42226;42.382;23.748;2022-08-03T22:40:36;6.40;;;5.90;;
56319;SDS011;42226;42.382;23.748;2022-08-03T22:43:07;6.43;;;5.93;;
56319;SDS011;42226;42.382;23.748;2022-08-03T22:45:33;6.97;;;6.28;;
56319;SDS011;42226;42.382;23.748;2022-08-03T22:48:00;6.50;;;5.90;;
56319;SDS011;42226;42.382;23.748;2022-08-03T22:50:27;6.13;;;5.63;;
56319;SDS011;42226;42.382;23.748;2022-08-03T22:52:54;6.75;;;6.25;;
56319;SDS011;42226;42.382;23.748;2022-08-03T22:55:21;6.05;;;5.57;;
56319;SDS011;42226;42.382;23.748;2022-08-03T22:57:49;6.63;;;6.03;;
56319;SDS011;42226;42.382;23.748;2022-08-03T23:00:16;6.22;;;5.32;;
56319;SDS011;42226;42.382;23.748;2022-08-03T23:02:43;5.32;;;4.93;;
56319;SDS011;42226;42.382;23.748;2022-08-03T23:05:25;9.88;;;6.05;;
56319;SDS011;42226;42.382;23.748;2022-08-03T23:07:56;6.47;;;5.85;;
56319;SDS011;42226;42.382;23.748;2022-08-03T23:10:25;6.80;;;6.20;;
56319;SDS011;42226;42.382;23.748;2022-08-03T23:12:52;5.60;;;5.10;;
56319;SDS011;42226;42.382;23.748;2022-08-03T23:15:19;6.68;;;6.13;;
56319;SDS011;42226;42.382;23.748;2022-08-03T23:17:52;6.07;;;5.47;;
56319;SDS011;42226;42.382;23.748;2022-08-03T23:20:21;6.15;;;5.65;;
56319;SDS011;42226;42.382;23.748;2022-08-03T23:22:50;5.88;;;5.38;;
56319;SDS011;42226;42.382;23.748;2022-08-03T23:25:17;6.30;;;5.70;;
56319;SDS011;42226;42.382;23.748;2022-08-03T23:27:45;5.85;;;5.32;;
56319;SDS011;42226;42.382;23.748;2022-08-03T23:30:13;6.03;;;5.53;;
56319;SDS011;42226;42.382;23.748;2022-08-03T23:32:41;6.57;;;5.97;;
56319;SDS011;42226;42.382;23.748;2022-08-03T23:35:09;6.00;;;5.43;;
56319;SDS011;42226;42.382;23.748;2022-08-03T23:37:55;5.50;;;4.80;;
56319;SDS011;42226;42.382;23.748;2022-08-03T23:40:25;5.60;;;5.10;;
56319;SDS011;42226;42.382;23.748;2022-08-03T23:42:58;5.32;;;4.93;;
56319;SDS011;42226;42.382;23.748;2022-08-03T23:45:26;4.97;;;4.57;;
56319;SDS011;42226;42.382;23.748;2022-08-03T23:47:55;5.60;;;4.88;;
56319;SDS011;42226;42.382;23.748;2022-08-03T23:50:21;5.38;;;4.75;;
56319;SDS011;42226;42.382;23.748;2022-08-03T23:52:53;5.05;;;4.65;;
56319;SDS011;42226;42.382;23.748;2022-08-03T23:55:44;5.07;;;4.68;;
56319;SDS011;42226;42.382;23.748;2022-08-03T23:58:56;5.40;;;4.70;;
